Time;durP1;ratioP1;P1;durP2;ratioP2;P2;SDS_P1;SDS_P2;PMS_P1;PMS_P2;Temp;Humidity;BMP_temperature;BMP_pressure;BME280_temperature;BME280_humidity;BME280_pressure;Samples;Min_cycle;Max_cycle;Signal;HPM_P1;HPM_P2
2023/01/28 07:33:08;;;;;;;14.70;11.10;;;0.40;99.90;;;;;;5059714;28;20553;-74
2023/01/28 07:35:34;;;;;;;14.60;10.57;;;0.40;99.90;;;;;;5032190;28;20239;-73
2023/01/28 07:38:00;;;;;;;13.90;10.53;;;0.40;99.90;;;;;;5040297;28;20605;-73
2023/01/28 07:40:27;;;;;;;12.93;9.97;;;0.40;99.90;;;;;;5030680;28;20176;-73
2023/01/28 07:42:54;;;;;;;15.47;10.93;;;0.50;99.90;;;;;;5036938;28;20169;-73
2023/01/28 07:45:20;;;;;;;13.73;9.47;;;0.50;99.90;;;;;;5028396;28;20219;-72
2023/01/28 07:47:56;;;;;;;14.03;10.00;;;0.60;99.90;;;;;;5031901;28;20177;-72
2023/01/28 07:50:22;;;;;;;13.87;10.23;;;0.70;99.90;;;;;;5033186;28;20208;-73
2023/01/28 07:52:47;;;;;;;11.53;8.70;;;0.80;99.90;;;;;;5039901;28;20275;-73
2023/01/28 07:55:14;;;;;;;12.07;9.65;;;0.80;99.90;;;;;;5031734;28;20258;-73
2023/01/28 07:58:00;;;;;;;11.40;9.07;;;1.00;99.90;;;;;;5030308;28;20583;-72
2023/01/28 08:00:28;;;;;;;11.35;8.95;;;1.00;99.90;;;;;;5034996;28;20751;-73
2023/01/28 08:03:01;;;;;;;10.80;9.00;;;1.00;99.90;;;;;;5036581;28;20172;-72
2023/01/28 08:05:37;;;;;;;12.70;9.05;;;1.10;99.90;;;;;;5034334;28;20247;-73
2023/01/28 08:08:03;;;;;;;12.13;9.27;;;1.10;99.90;;;;;;5034557;28;20176;-72
2023/01/28 08:10:29;;;;;;;10.90;8.75;;;1.20;99.90;;;;;;5020066;28;20184;-72
2023/01/28 08:12:57;;;;;;;11.20;8.75;;;1.30;99.90;;;;;;5029111;28;20204;-72
2023/01/28 08:15:24;;;;;;;10.52;9.45;;;1.50;99.90;;;;;;5037070;28;20205;-71
2023/01/28 08:17:50;;;;;;;10.70;9.20;;;1.50;99.90;;;;;;5028156;28;20184;-71
2023/01/28 08:20:16;;;;;;;11.65;8.77;;;1.40;99.90;;;;;;5023994;28;20184;-72
2023/01/28 08:22:41;;;;;;;12.77;9.38;;;1.40;99.90;;;;;;5023335;28;20676;-71
2023/01/28 08:25:08;;;;;;;13.30;10.60;;;1.30;99.90;;;;;;5032228;28;20208;-72
2023/01/28 08:27:33;;;;;;;12.70;9.95;;;1.20;99.90;;;;;;5030694;28;20180;-73
2023/01/28 08:29:59;;;;;;;13.65;10.13;;;1.30;99.90;;;;;;5025905;28;20181;-72
2023/01/28 08:32:24;;;;;;;12.73;9.57;;;1.40;99.90;;;;;;5029731;28;20692;-72
2023/01/28 08:34:50;;;;;;;13.50;10.13;;;1.60;99.90;;;;;;5012996;28;20570;-73
2023/01/28 08:37:16;;;;;;;12.13;10.65;;;1.70;99.90;;;;;;5021500;28;20181;-72
2023/01/28 08:39:41;;;;;;;15.60;11.23;;;1.70;99.90;;;;;;5025573;28;20203;-75
2023/01/28 08:42:07;;;;;;;14.05;11.63;;;1.60;99.90;;;;;;5031514;28;20176;-74
2023/01/28 08:44:33;;;;;;;15.50;10.35;;;1.70;99.90;;;;;;5014241;28;20193;-75
2023/01/28 08:46:59;;;;;;;14.10;11.23;;;1.80;99.90;;;;;;5015267;28;20193;-75
2023/01/28 08:49:25;;;;;;;15.57;12.05;;;1.70;99.90;;;;;;5017662;28;20236;-75
2023/01/28 08:51:51;;;;;;;13.05;10.65;;;1.60;99.90;;;;;;5015558;28;20220;-75
2023/01/28 08:54:17;;;;;;;16.10;11.07;;;1.60;99.90;;;;;;5013454;28;20201;-78
2023/01/28 08:56:44;;;;;;;15.25;11.85;;;1.70;99.90;;;;;;5026085;28;20271;-74
2023/01/28 08:59:11;;;;;;;13.77;11.43;;;1.80;99.90;;;;;;5014564;28;20684;-72
2023/01/28 09:01:43;;;;;;;17.30;11.35;;;1.70;99.90;;;;;;5021589;28;20207;-73
2023/01/28 09:04:09;;;;;;;13.10;10.35;;;1.70;99.90;;;;;;5014678;28;20792;-76
2023/01/28 09:06:34;;;;;;;14.43;10.35;;;1.80;99.90;;;;;;5012393;28;20245;-75
2023/01/28 09:09:00;;;;;;;16.25;10.90;;;1.80;99.90;;;;;;5010971;28;20195;-76
2023/01/28 09:11:27;;;;;;;15.30;12.35;;;1.80;99.90;;;;;;5007550;28;20209;-76
2023/01/28 09:13:53;;;;;;;15.25;11.90;;;1.80;99.90;;;;;;5003895;28;20715;-76
2023/01/28 09:16:19;;;;;;;19.58;10.82;;;1.90;99.90;;;;;;5008352;28;20204;-76
2023/01/28 09:18:45;;;;;;;16.00;11.50;;;2.00;99.90;;;;;;5005708;28;20181;-75
2023/01/28 09:21:10;;;;;;;13.65;10.70;;;2.20;99.90;;;;;;5006194;28;20675;-75
2023/01/28 09:23:37;;;;;;;16.40;11.90;;;2.30;99.90;;;;;;5007572;28;20223;-75
2023/01/28 09:26:04;;;;;;;14.80;12.18;;;2.40;99.90;;;;;;5007307;28;20204;-74
2023/01/28 09:28:31;;;;;;;14.98;11.65;;;2.30;99.90;;;;;;5007168;28;20866;-74
2023/01/28 09:31:08;;;;;;;14.63;12.05;;;2.40;99.90;;;;;;5012456;28;20177;-74
2023/01/28 09:33:35;;;;;;;14.93;11.88;;;2.50;99.90;;;;;;5010616;28;20188;-74
2023/01/28 09:36:05;;;;;;;13.48;11.40;;;2.60;99.90;;;;;;5013496;28;20323;-74
2023/01/28 09:38:33;;;;;;;15.82;11.00;;;2.60;99.90;;;;;;5017685;28;20180;-74
2023/01/28 09:41:00;;;;;;;14.90;11.32;;;2.60;99.90;;;;;;5025707;28;20644;-74
2023/01/28 09:43:34;;;;;;;15.25;11.30;;;2.80;99.90;;;;;;5015140;28;20239;-74
2023/01/28 09:46:03;;;;;;;15.30;11.20;;;2.80;99.90;;;;;;5013407;28;20203;-74
2023/01/28 09:48:36;;;;;;;17.05;11.90;;;2.90;99.90;;;;;;5022038;28;20177;-73
2023/01/28 09:51:06;;;;;;;15.48;10.70;;;2.80;99.90;;;;;;5015411;28;20303;-74
2023/01/28 09:53:37;;;;;;;14.93;11.43;;;2.80;99.90;;;;;;5011258;28;20521;-74
2023/01/28 09:56:19;;;;;;;14.30;11.38;;;3.00;99.90;;;;;;5010326;28;20189;-73
2023/01/28 09:58:45;;;;;;;17.33;12.43;;;3.00;99.90;;;;;;5024617;28;20173;-73
2023/01/28 10:01:29;;;;;;;14.38;12.07;;;3.00;99.90;;;;;;5008850;28;20592;-73
2023/01/28 10:04:15;;;;;;;15.57;11.63;;;3.00;99.90;;;;;;5013317;28;20368;-73
2023/01/28 10:07:28;;;;;;;13.80;11.13;;;3.00;99.90;;;;;;5007240;28;20189;-74
2023/01/28 10:10:24;;;;;;;16.52;11.20;;;3.10;99.90;;;;;;4992076;28;20213;-75
2023/01/28 10:13:23;;;;;;;14.80;11.93;;;3.40;99.90;;;;;;5006666;28;20205;-75
2023/01/28 10:15:49;;;;;;;14.77;11.45;;;3.60;99.90;;;;;;5006993;28;20210;-75
2023/01/28 10:18:14;;;;;;;13.70;12.07;;;3.80;99.90;;;;;;5006162;28;20250;-75
2023/01/28 10:20:52;;;;;;;13.50;11.63;;;3.90;99.90;;;;;;5011392;28;20189;-75
2023/01/28 10:23:45;;;;;;;15.48;11.95;;;4.00;99.90;;;;;;5012840;28;20181;-75
2023/01/28 10:26:24;;;;;;;14.88;11.90;;;3.80;99.90;;;;;;5011556;28;20671;-75
2023/01/28 10:28:56;;;;;;;14.30;10.38;;;3.70;99.90;;;;;;5011333;28;20192;-76
2023/01/28 10:31:26;;;;;;;16.08;11.38;;;3.60;99.90;;;;;;5013469;28;20856;-75
2023/01/28 10:33:53;;;;;;;14.75;11.52;;;3.60;99.90;;;;;;5009301;28;20216;-76
2023/01/28 10:36:18;;;;;;;14.95;11.57;;;3.50;99.90;;;;;;5010778;28;20188;-75
2023/01/28 10:38:44;;;;;;;15.48;11.80;;;3.60;99.90;;;;;;5012827;28;20438;-75
2023/01/28 10:41:17;;;;;;;15.40;11.85;;;3.50;99.90;;;;;;5019146;28;20196;-76
2023/01/28 10:43:42;;;;;;;17.27;11.32;;;3.20;99.90;;;;;;5014888;28;20648;-76
2023/01/28 10:46:16;;;;;;;14.00;12.05;;;3.00;99.90;;;;;;5014541;28;20183;-76
2023/01/28 10:48:47;;;;;;;15.60;12.15;;;3.00;99.90;;;;;;5013286;28;20188;-75
2023/01/28 10:51:14;;;;;;;13.73;11.05;;;2.90;99.90;;;;;;5005150;28;20208;-75
2023/01/28 10:53:41;;;;;;;16.17;11.98;;;2.80;99.90;;;;;;5011765;28;20181;-75
2023/01/28 10:56:12;;;;;;;16.30;11.77;;;2.80;99.90;;;;;;5011784;28;20180;-75
2023/01/28 10:58:52;;;;;;;14.82;11.63;;;2.80;99.90;;;;;;5016371;28;20223;-75
2023/01/28 11:01:18;;;;;;;14.75;11.55;;;2.80;99.90;;;;;;5017831;28;20181;-75
2023/01/28 11:03:56;;;;;;;14.95;13.23;;;2.80;99.90;;;;;;5025330;28;20187;-75
2023/01/28 11:06:27;;;;;;;14.55;11.05;;;2.60;99.90;;;;;;5023039;28;20548;-75
2023/01/28 11:08:53;;;;;;;14.32;11.18;;;2.60;99.90;;;;;;5014766;28;20185;-75
2023/01/28 11:11:25;;;;;;;18.23;12.43;;;2.60;99.90;;;;;;5015606;28;20201;-75
2023/01/28 11:13:53;;;;;;;16.42;13.15;;;2.60;99.90;;;;;;5014510;28;20204;-75
2023/01/28 11:16:19;;;;;;;14.55;12.35;;;2.50;99.90;;;;;;5011789;28;20256;-75
2023/01/28 11:18:53;;;;;;;14.88;12.75;;;2.50;99.90;;;;;;5014989;28;20251;-75
2023/01/28 11:21:23;;;;;;;14.95;11.10;;;2.60;99.90;;;;;;5024903;28;20204;-75
2023/01/28 11:24:01;;;;;;;15.52;11.45;;;2.60;99.90;;;;;;5012975;28;20204;-75
2023/01/28 11:26:31;;;;;;;18.02;13.52;;;2.70;99.90;;;;;;5018014;28;20215;-75
2023/01/28 11:28:57;;;;;;;18.27;13.35;;;2.90;99.90;;;;;;5014561;28;20208;-78
2023/01/28 11:31:24;;;;;;;15.75;11.60;;;3.00;99.90;;;;;;5004567;28;20212;-77
2023/01/28 11:33:56;;;;;;;15.55;11.98;;;3.10;99.90;;;;;;5004826;28;20296;-78
2023/01/28 11:36:33;;;;;;;15.68;12.43;;;3.20;99.90;;;;;;5005233;28;20177;-76
2023/01/28 11:39:19;;;;;;;16.40;12.38;;;3.20;99.90;;;;;;5002740;28;20349;-77
2023/01/28 11:41:46;;;;;;;15.85;12.77;;;3.20;99.90;;;;;;5000408;28;20181;-78
2023/01/28 11:44:16;;;;;;;13.75;11.27;;;3.20;99.90;;;;;;5007752;28;20749;-75
2023/01/28 11:46:51;;;;;;;13.77;11.45;;;3.20;99.90;;;;;;5017606;28;20224;-74
2023/01/28 11:49:40;;;;;;;14.48;11.18;;;3.10;99.90;;;;;;5005609;28;20188;-74
2023/01/28 11:52:56;;;;;;;16.85;13.10;;;3.10;99.90;;;;;;5011080;28;20212;-75
2023/01/28 11:55:53;;;;;;;15.10;11.85;;;3.00;99.90;;;;;;4999609;28;20216;-75
2023/01/28 11:58:26;;;;;;;16.45;12.50;;;3.10;99.90;;;;;;5005535;28;20185;-75
2023/01/28 12:00:58;;;;;;;16.45;12.45;;;3.10;99.90;;;;;;5008044;28;20190;-75
2023/01/28 12:03:32;;;;;;;16.10;12.75;;;3.30;99.90;;;;;;5011103;28;20169;-75
2023/01/28 12:06:22;;;;;;;16.63;12.35;;;3.50;99.90;;;;;;5007261;28;20181;-75
2023/01/28 12:09:10;;;;;;;14.50;11.35;;;3.60;99.90;;;;;;5013080;28;20664;-75
2023/01/28 12:14:57;;;;;;;14.52;11.55;;;3.90;99.90;;;;;;5004943;28;20228;-74
2023/01/28 12:17:31;;;;;;;15.52;11.55;;;3.80;99.90;;;;;;5010987;28;20534;-75
2023/01/28 12:19:57;;;;;;;17.10;12.00;;;3.50;99.90;;;;;;5014068;28;20719;-75
2023/01/28 12:22:36;;;;;;;15.82;11.13;;;3.40;99.90;;;;;;5010601;28;20301;-75
2023/01/28 12:25:16;;;;;;;18.48;11.65;;;3.20;99.90;;;;;;5015251;28;20230;-75
2023/01/28 12:28:06;;;;;;;16.02;11.77;;;3.00;99.90;;;;;;5015569;28;20643;-74
2023/01/28 12:30:49;;;;;;;13.95;10.90;;;2.90;99.90;;;;;;5008201;28;20177;-74
2023/01/28 12:33:30;;;;;;;16.50;11.30;;;2.80;99.90;;;;;;5013877;28;20228;-74
2023/01/28 12:36:05;;;;;;;13.98;10.75;;;2.70;99.90;;;;;;5018430;28;20178;-76
2023/01/28 12:38:51;;;;;;;13.55;11.25;;;2.70;99.90;;;;;;5009672;28;20181;-77
2023/01/28 12:41:21;;;;;;;13.63;10.13;;;2.70;99.90;;;;;;5027611;28;20246;-76
2023/01/28 12:43:58;;;;;;;14.82;11.02;;;2.80;99.90;;;;;;5012696;28;20181;-76
2023/01/28 12:46:52;;;;;;;12.52;10.25;;;2.80;99.90;;;;;;4999454;28;20201;-76
2023/01/28 12:49:39;;;;;;;14.55;11.05;;;2.80;99.90;;;;;;5010969;28;20230;-75
2023/01/28 12:52:19;;;;;;;13.88;9.63;;;2.70;99.90;;;;;;5009871;28;20209;-75
2023/01/28 12:55:03;;;;;;;11.57;8.98;;;2.70;99.90;;;;;;5010647;28;20222;-75
2023/01/28 12:57:31;;;;;;;13.13;9.90;;;2.60;99.90;;;;;;5006625;28;20271;-75
2023/01/28 13:00:25;;;;;;;11.15;9.80;;;2.50;99.90;;;;;;5007493;28;20205;-75
2023/01/28 13:03:14;;;;;;;11.80;8.55;;;2.40;99.90;;;;;;5008169;28;20185;-75
2023/01/28 13:05:54;;;;;;;10.10;8.88;;;2.40;99.90;;;;;;5019740;28;20211;-75
2023/01/28 13:08:24;;;;;;;12.02;9.85;;;2.40;99.90;;;;;;5003518;28;20671;-75
2023/01/28 13:10:51;;;;;;;11.63;9.07;;;2.50;99.90;;;;;;5003195;28;20182;-75
2023/01/28 13:13:27;;;;;;;12.98;10.30;;;2.40;99.90;;;;;;5006979;28;20181;-75
2023/01/28 13:15:52;;;;;;;12.95;10.00;;;2.50;99.90;;;;;;5005102;28;20195;-74
2023/01/28 13:18:31;;;;;;;11.70;9.75;;;2.50;99.90;;;;;;5006611;28;20173;-75
2023/01/28 13:20:57;;;;;;;10.82;9.38;;;2.40;99.90;;;;;;5006125;28;20170;-75
2023/01/28 13:23:36;;;;;;;10.82;9.05;;;2.60;99.90;;;;;;5010784;28;20837;-75
2023/01/28 13:26:17;;;;;;;11.25;8.60;;;2.60;99.90;;;;;;5009047;28;20274;-75
2023/01/28 13:28:43;;;;;;;10.20;8.63;;;2.50;99.90;;;;;;5004978;28;20178;-75
2023/01/28 13:31:17;;;;;;;11.45;8.93;;;2.40;99.90;;;;;;5003628;28;20188;-76
2023/01/28 13:33:55;;;;;;;9.75;8.43;;;2.30;99.90;;;;;;4996020;28;20178;-76
2023/01/28 13:36:30;;;;;;;9.90;8.00;;;2.40;99.90;;;;;;4997994;28;20185;-75
2023/01/28 13:39:03;;;;;;;10.70;8.30;;;2.20;99.90;;;;;;5001227;28;20173;-75
2023/01/28 13:41:37;;;;;;;9.93;8.38;;;2.20;99.90;;;;;;4999889;28;20186;-74
2023/01/28 13:44:03;;;;;;;9.30;8.30;;;2.20;99.90;;;;;;5000650;28;20203;-74
2023/01/28 13:46:30;;;;;;;8.10;7.15;;;2.30;99.90;;;;;;4998471;28;20189;-74
2023/01/28 13:48:57;;;;;;;8.95;7.38;;;2.20;99.90;;;;;;5001446;28;20181;-74
2023/01/28 13:51:29;;;;;;;7.88;7.15;;;2.30;99.90;;;;;;5000631;28;20271;-74
2023/01/28 13:54:04;;;;;;;7.65;6.85;;;2.30;99.90;;;;;;5001529;28;20211;-75
2023/01/28 13:56:48;;;;;;;7.15;6.45;;;2.30;99.90;;;;;;5009153;28;20211;-77
2023/01/28 13:59:32;;;;;;;5.85;5.35;;;2.30;99.90;;;;;;5006491;28;20184;-76
2023/01/28 14:01:58;;;;;;;7.25;6.57;;;2.20;99.90;;;;;;5006872;28;20185;-75
2023/01/28 14:04:52;;;;;;;7.05;6.20;;;2.30;99.90;;;;;;5002486;28;20292;-75
2023/01/28 14:07:34;;;;;;;6.13;5.55;;;2.20;99.90;;;;;;5005884;28;20181;-75
2023/01/28 14:10:08;;;;;;;7.47;6.78;;;2.20;99.90;;;;;;5000223;28;20276;-75
2023/01/28 14:13:15;;;;;;;7.15;6.55;;;2.10;99.90;;;;;;5004462;28;20199;-75
2023/01/28 14:15:59;;;;;;;7.13;6.20;;;2.00;99.90;;;;;;5005387;28;20241;-75
2023/01/28 14:18:28;;;;;;;6.80;5.90;;;2.00;99.90;;;;;;5006830;28;20629;-75
2023/01/28 14:20:58;;;;;;;7.00;6.20;;;1.90;99.90;;;;;;5019907;28;20205;-76
2023/01/28 14:23:29;;;;;;;6.63;6.03;;;1.90;99.90;;;;;;5001756;28;20185;-76
2023/01/28 14:26:01;;;;;;;6.40;5.80;;;1.90;99.90;;;;;;5006871;28;20570;-76
2023/01/28 14:28:40;;;;;;;7.32;6.60;;;2.00;99.90;;;;;;5007335;28;20581;-75
2023/01/28 14:31:24;;;;;;;7.22;6.15;;;2.10;99.90;;;;;;5013387;28;20199;-75
2023/01/28 14:33:50;;;;;;;5.70;5.20;;;2.10;99.90;;;;;;5009422;28;20229;-75
2023/01/28 14:36:15;;;;;;;6.38;5.60;;;2.20;99.90;;;;;;5013154;28;20610;-75
2023/01/28 14:38:43;;;;;;;5.28;4.85;;;2.20;99.90;;;;;;5013020;28;20209;-75
2023/01/28 14:41:23;;;;;;;6.03;5.43;;;2.30;99.90;;;;;;5011200;28;20230;-77
2023/01/28 14:43:49;;;;;;;6.63;6.03;;;2.30;99.90;;;;;;5007308;28;20200;-74
2023/01/28 14:46:28;;;;;;;6.70;6.10;;;2.30;99.90;;;;;;5009013;28;20213;-75
2023/01/28 14:49:12;;;;;;;6.38;5.78;;;2.30;99.90;;;;;;5009063;28;20549;-75
2023/01/28 14:51:37;;;;;;;5.32;4.82;;;2.30;99.90;;;;;;5011647;28;20239;-75
2023/01/28 14:54:03;;;;;;;6.18;5.63;;;2.30;99.90;;;;;;5006097;28;20201;-75
2023/01/28 14:56:54;;;;;;;6.85;6.15;;;2.20;99.90;;;;;;5009420;28;20268;-75
2023/01/28 14:59:25;;;;;;;6.95;6.20;;;2.20;99.90;;;;;;5011049;28;20203;-75
2023/01/28 15:01:56;;;;;;;6.93;6.18;;;2.10;99.90;;;;;;5013106;28;20185;-75
2023/01/28 15:04:27;;;;;;;5.95;5.35;;;2.00;99.90;;;;;;5010375;28;20204;-74
2023/01/28 15:06:53;;;;;;;7.05;5.95;;;2.10;99.90;;;;;;5010694;28;20174;-75
2023/01/28 15:09:22;;;;;;;6.43;5.80;;;2.00;99.90;;;;;;5009630;28;20185;-75
2023/01/28 15:11:53;;;;;;;5.90;5.40;;;2.00;99.90;;;;;;5013741;28;20228;-75
2023/01/28 15:14:30;;;;;;;5.05;4.65;;;2.00;99.90;;;;;;5013430;28;20246;-84
2023/01/28 15:16:56;;;;;;;6.50;5.82;;;2.00;99.90;;;;;;5016365;28;20686;-77
2023/01/28 15:19:35;;;;;;;5.65;5.05;;;2.00;99.90;;;;;;5017971;28;20260;-77
2023/01/28 15:22:06;;;;;;;5.50;5.00;;;2.00;99.90;;;;;;5021156;28;20199;-78
2023/01/28 15:24:36;;;;;;;5.78;5.28;;;2.20;99.90;;;;;;5008819;28;20593;-77
2023/01/28 15:27:02;;;;;;;6.50;5.43;;;2.10;99.90;;;;;;5012002;28;20200;-79
2023/01/28 15:29:34;;;;;;;6.35;5.65;;;2.00;99.90;;;;;;5022142;28;20268;-78
2023/01/28 15:32:00;;;;;;;6.25;5.68;;;1.90;99.90;;;;;;5013218;28;20669;-79
2023/01/28 15:34:29;;;;;;;6.72;6.07;;;2.00;99.90;;;;;;5017203;28;20243;-79
2023/01/28 15:36:56;;;;;;;5.63;5.15;;;1.90;99.90;;;;;;5021146;28;20169;-79
2023/01/28 15:39:24;;;;;;;7.03;6.35;;;1.80;99.90;;;;;;5006073;28;20252;-78
2023/01/28 15:42:00;;;;;;;6.63;5.75;;;1.70;99.90;;;;;;5029941;28;20173;-78
2023/01/28 15:44:36;;;;;;;6.20;5.20;;;1.70;99.90;;;;;;5013090;28;20206;-78
2023/01/28 15:47:13;;;;;;;7.28;5.43;;;1.80;99.90;;;;;;5012146;28;20189;-73
2023/01/28 15:49:45;;;;;;;5.40;4.90;;;1.80;99.90;;;;;;5009015;28;20188;-74
2023/01/28 15:52:11;;;;;;;5.78;4.85;;;1.90;99.90;;;;;;5008345;28;20209;-74
2023/01/28 15:54:43;;;;;;;5.72;5.20;;;1.90;99.90;;;;;;5011546;28;20205;-74
2023/01/28 15:57:29;;;;;;;5.70;5.10;;;1.90;99.90;;;;;;5010508;28;20231;-75
2023/01/28 16:00:12;;;;;;;5.43;4.93;;;1.90;99.90;;;;;;5016633;28;20173;-75
2023/01/28 16:02:49;;;;;;;5.50;5.00;;;1.90;99.90;;;;;;5011486;28;20658;-74
2023/01/28 16:05:32;;;;;;;6.00;4.90;;;1.80;99.90;;;;;;5004363;28;20335;-74
2023/01/28 16:08:00;;;;;;;5.90;5.20;;;1.80;99.90;;;;;;5007671;28;20185;-75
2023/01/28 16:10:28;;;;;;;5.82;5.32;;;1.70;99.90;;;;;;5014345;28;20185;-74
2023/01/28 16:13:06;;;;;;;6.65;5.95;;;1.60;99.90;;;;;;5011418;28;20299;-73
2023/01/28 16:15:32;;;;;;;6.22;5.63;;;1.70;99.90;;;;;;5010975;28;20196;-73
2023/01/28 16:17:58;;;;;;;6.45;5.85;;;1.70;99.90;;;;;;5007417;28;20264;-73
2023/01/28 16:20:26;;;;;;;6.63;5.68;;;1.70;99.90;;;;;;5015034;28;20200;-78
2023/01/28 16:22:55;;;;;;;7.18;6.57;;;1.70;99.90;;;;;;5013916;28;20581;-75
2023/01/28 16:25:21;;;;;;;6.40;5.80;;;1.70;99.90;;;;;;5016385;28;20274;-75
2023/01/28 16:27:47;;;;;;;5.65;5.15;;;1.60;99.90;;;;;;5015619;28;20192;-78
2023/01/28 16:30:14;;;;;;;6.20;5.63;;;1.50;99.90;;;;;;5013515;28;20559;-78
2023/01/28 16:32:43;;;;;;;6.68;6.07;;;1.50;99.90;;;;;;5012579;28;20213;-77
2023/01/28 16:35:16;;;;;;;6.38;5.78;;;1.70;99.90;;;;;;5020047;28;20620;-77
2023/01/28 16:37:42;;;;;;;6.25;5.60;;;1.60;99.90;;;;;;5019615;28;20205;-78
2023/01/28 16:40:10;;;;;;;6.32;5.65;;;1.60;99.90;;;;;;5013164;28;20181;-77
2023/01/28 16:42:36;;;;;;;8.02;5.60;;;1.50;99.90;;;;;;5012403;28;20185;-76
2023/01/28 16:45:02;;;;;;;5.68;5.18;;;1.50;99.90;;;;;;5016569;28;20211;-77
2023/01/28 16:47:28;;;;;;;5.53;5.13;;;1.40;99.90;;;;;;5015730;28;20244;-77
2023/01/28 16:49:53;;;;;;;7.00;6.13;;;1.40;99.90;;;;;;5006448;28;20193;-78
2023/01/28 16:52:19;;;;;;;8.52;5.70;;;1.40;99.90;;;;;;5016628;28;20566;-77
2023/01/28 16:54:44;;;;;;;6.00;5.47;;;1.40;99.90;;;;;;5014949;28;20279;-77
2023/01/28 16:57:15;;;;;;;6.18;5.65;;;1.40;99.90;;;;;;5016857;28;20660;-74
2023/01/28 16:59:41;;;;;;;6.00;5.30;;;1.40;99.90;;;;;;5021306;28;20239;-75
2023/01/28 17:02:16;;;;;;;6.32;5.72;;;1.40;99.90;;;;;;5014691;28;20676;-75
2023/01/28 17:05:25;;;;;;;5.25;4.80;;;1.40;99.90;;;;;;4988457;28;20232;-74
2023/01/28 17:07:53;;;;;;;5.93;5.38;;;1.40;99.90;;;;;;5007792;28;20198;-74
2023/01/28 17:10:19;;;;;;;6.75;5.97;;;1.40;99.90;;;;;;5013048;28;20181;-79
2023/01/28 17:12:47;;;;;;;7.30;5.10;;;1.40;99.90;;;;;;5020601;28;20208;-78
2023/01/28 17:15:12;;;;;;;5.25;4.80;;;1.40;99.90;;;;;;5027772;28;20201;-78
2023/01/28 17:17:38;;;;;;;6.70;4.95;;;1.50;99.90;;;;;;5011083;28;20767;-77
2023/01/28 17:20:05;;;;;;;5.00;4.60;;;1.50;99.90;;;;;;5013445;28;20177;-78
2023/01/28 17:22:30;;;;;;;4.63;4.32;;;1.40;99.90;;;;;;5014310;28;20184;-78
2023/01/28 17:24:56;;;;;;;4.85;4.38;;;1.40;99.90;;;;;;5009274;28;20201;-78
2023/01/28 17:27:21;;;;;;;5.43;4.60;;;1.40;99.90;;;;;;5015634;28;20177;-77
2023/01/28 17:29:47;;;;;;;5.03;4.53;;;1.40;99.90;;;;;;5018988;28;20590;-77
2023/01/28 17:32:13;;;;;;;4.63;4.25;;;1.40;99.90;;;;;;5019432;28;20576;-76
2023/01/28 17:34:38;;;;;;;5.03;4.57;;;1.40;99.90;;;;;;5026749;28;20205;-76
2023/01/28 17:37:04;;;;;;;5.05;4.53;;;1.40;99.90;;;;;;5020632;28;20181;-77
2023/01/28 17:39:29;;;;;;;5.78;4.28;;;1.30;99.90;;;;;;5009300;28;20225;-77
2023/01/28 17:41:55;;;;;;;5.90;5.30;;;1.30;99.90;;;;;;5004512;28;20185;-78
2023/01/28 17:44:21;;;;;;;6.57;4.75;;;1.30;99.90;;;;;;5006417;28;20213;-78
2023/01/28 17:46:46;;;;;;;5.22;4.72;;;1.20;99.90;;;;;;5003571;28;20235;-80
2023/01/28 17:49:12;;;;;;;4.63;4.22;;;1.20;99.90;;;;;;5015549;28;20184;-79
2023/01/28 17:51:38;;;;;;;5.90;4.93;;;1.20;99.90;;;;;;5011599;28;20205;-80
2023/01/28 17:54:04;;;;;;;6.95;4.38;;;1.20;99.90;;;;;;5028733;28;20608;-79
2023/01/28 17:56:30;;;;;;;5.20;4.43;;;1.20;99.90;;;;;;5006331;28;20213;-80
2023/01/28 17:59:05;;;;;;;4.85;4.45;;;1.30;99.90;;;;;;5010369;28;20521;-81
2023/01/28 18:01:32;;;;;;;5.05;4.50;;;1.40;99.90;;;;;;5012179;28;20180;-78
2023/01/28 18:03:58;;;;;;;4.53;4.13;;;1.40;99.90;;;;;;5012499;28;20303;-77
2023/01/28 18:06:24;;;;;;;5.32;4.80;;;1.30;99.90;;;;;;5011642;28;20220;-78
2023/01/28 18:08:49;;;;;;;5.30;4.88;;;1.40;99.90;;;;;;5015683;28;20181;-78
2023/01/28 18:11:19;;;;;;;7.28;4.80;;;1.40;99.90;;;;;;5015023;28;20176;-78
2023/01/28 18:13:44;;;;;;;5.07;4.60;;;1.40;99.90;;;;;;5009290;28;20664;-79
2023/01/28 18:16:14;;;;;;;4.00;3.80;;;1.40;99.90;;;;;;5007282;28;20212;-78
2023/01/28 18:18:41;;;;;;;4.93;4.40;;;1.30;99.90;;;;;;5019416;28;20647;-78
2023/01/28 18:21:07;;;;;;;6.20;4.75;;;1.20;99.90;;;;;;5017712;28;20186;-78
2023/01/28 18:23:33;;;;;;;4.97;4.57;;;1.20;99.90;;;;;;5012481;28;20177;-80
2023/01/28 18:26:00;;;;;;;4.35;3.92;;;1.20;99.90;;;;;;5021656;28;20188;-80
2023/01/28 18:28:27;;;;;;;5.15;4.75;;;1.10;99.90;;;;;;5018054;28;20182;-78
2023/01/28 18:30:53;;;;;;;5.25;4.65;;;1.20;99.90;;;;;;5003033;28;20177;-77
2023/01/28 18:33:20;;;;;;;5.32;4.80;;;1.10;99.90;;;;;;5011700;28;20240;-78
2023/01/28 18:35:46;;;;;;;5.22;4.22;;;1.20;99.90;;;;;;5016733;28;20296;-75
2023/01/28 18:38:12;;;;;;;5.05;4.53;;;1.20;99.90;;;;;;5008109;28;20255;-78
2023/01/28 18:40:45;;;;;;;4.40;4.00;;;1.20;99.90;;;;;;5011849;28;20231;-77
2023/01/28 18:43:14;;;;;;;4.90;4.50;;;1.20;99.90;;;;;;5003013;28;20587;-75
2023/01/28 18:45:43;;;;;;;4.65;4.28;;;1.20;99.90;;;;;;5008160;28;20205;-75
2023/01/28 18:48:08;;;;;;;6.03;4.82;;;1.30;99.90;;;;;;5012302;28;20180;-74
2023/01/28 18:50:34;;;;;;;7.68;4.93;;;1.30;99.90;;;;;;5012867;28;20189;-74
2023/01/28 18:53:00;;;;;;;4.88;4.47;;;1.40;99.90;;;;;;5011977;28;20573;-74
2023/01/28 18:55:25;;;;;;;6.47;5.85;;;1.30;99.90;;;;;;4997352;28;20283;-74
2023/01/28 18:57:51;;;;;;;5.88;5.28;;;1.20;99.90;;;;;;5000589;28;20216;-73
2023/01/28 19:00:17;;;;;;;6.78;4.72;;;1.20;99.90;;;;;;5009714;28;20185;-74
2023/01/28 19:02:43;;;;;;;5.68;4.50;;;1.30;99.90;;;;;;5002267;28;20178;-74
2023/01/28 19:05:09;;;;;;;5.40;4.90;;;1.20;99.90;;;;;;5016963;28;20196;-74
2023/01/28 19:07:35;;;;;;;5.45;4.60;;;1.20;99.90;;;;;;4999603;28;20174;-74
2023/01/28 19:10:01;;;;;;;5.10;4.60;;;1.20;99.90;;;;;;4999978;28;20252;-74
2023/01/28 19:12:26;;;;;;;4.75;4.30;;;1.30;99.90;;;;;;5004452;28;20776;-74
2023/01/28 19:14:52;;;;;;;5.57;5.07;;;1.40;99.90;;;;;;5016786;28;20197;-74
2023/01/28 19:17:17;;;;;;;5.00;4.60;;;1.40;99.90;;;;;;4997877;28;20184;-73
2023/01/28 19:19:43;;;;;;;14.73;6.30;;;1.40;99.90;;;;;;5013835;28;20208;-74
2023/01/28 19:22:09;;;;;;;8.25;5.65;;;1.40;99.90;;;;;;5013084;28;20186;-73
2023/01/28 19:24:34;;;;;;;6.37;5.10;;;1.30;99.90;;;;;;4997165;28;20198;-74
2023/01/28 19:27:00;;;;;;;8.48;5.20;;;1.40;99.90;;;;;;5001094;28;20187;-74
2023/01/28 19:29:28;;;;;;;5.85;5.18;;;1.40;99.90;;;;;;4996000;28;20181;-74
2023/01/28 19:31:53;;;;;;;8.02;5.18;;;1.40;99.90;;;;;;4997555;28;20271;-73
2023/01/28 19:34:20;;;;;;;5.30;4.88;;;1.40;99.90;;;;;;4999135;28;20198;-77
2023/01/28 19:36:45;;;;;;;5.22;4.82;;;1.50;99.90;;;;;;5008383;28;20571;-73
2023/01/28 19:39:12;;;;;;;7.30;5.13;;;1.70;99.90;;;;;;5007856;28;20180;-73
2023/01/28 19:41:38;;;;;;;6.90;5.40;;;1.60;99.90;;;;;;5011780;28;20192;-73
2023/01/28 19:44:05;;;;;;;5.78;5.28;;;1.50;99.90;;;;;;5008114;28;20205;-74
2023/01/28 19:46:31;;;;;;;5.68;5.13;;;1.40;99.90;;;;;;4997534;28;20208;-73
2023/01/28 19:48:57;;;;;;;5.65;5.15;;;1.30;99.90;;;;;;5004324;28;20186;-74
2023/01/28 19:51:23;;;;;;;9.15;5.50;;;1.30;99.90;;;;;;5012250;28;20189;-74
2023/01/28 19:53:50;;;;;;;5.55;4.90;;;1.20;99.90;;;;;;5012491;28;20308;-74
2023/01/28 19:56:17;;;;;;;6.50;5.35;;;1.30;99.90;;;;;;5013780;28;20180;-76
2023/01/28 19:58:44;;;;;;;6.07;5.57;;;1.30;99.90;;;;;;5016223;28;20541;-74
2023/01/28 20:01:11;;;;;;;6.95;4.82;;;1.20;99.90;;;;;;5011727;28;20181;-74
2023/01/28 20:03:37;;;;;;;5.88;5.28;;;1.30;99.90;;;;;;5018840;28;20252;-74
2023/01/28 20:06:05;;;;;;;6.22;5.63;;;1.30;99.90;;;;;;5017387;28;20188;-74
2023/01/28 20:08:31;;;;;;;5.50;5.00;;;1.20;99.90;;;;;;5016934;28;20219;-74
2023/01/28 20:11:08;;;;;;;8.10;4.93;;;1.20;99.90;;;;;;5015554;28;20572;-73
2023/01/28 20:13:35;;;;;;;5.20;4.80;;;1.20;99.90;;;;;;5018947;28;20576;-75
2023/01/28 20:16:06;;;;;;;5.70;4.90;;;1.20;99.90;;;;;;5020318;28;20648;-75
2023/01/28 20:18:32;;;;;;;4.60;4.20;;;1.20;99.90;;;;;;5014853;28;20264;-75
2023/01/28 20:20:58;;;;;;;5.55;5.10;;;1.20;99.90;;;;;;5019039;28;20201;-75
2023/01/28 20:23:24;;;;;;;5.57;5.07;;;1.20;99.90;;;;;;5012854;28;20300;-75
2023/01/28 20:25:53;;;;;;;5.63;5.23;;;1.10;99.90;;;;;;5009896;28;20216;-73
2023/01/28 20:28:19;;;;;;;5.27;4.77;;;0.90;99.90;;;;;;5007103;28;20187;-73
2023/01/28 20:30:45;;;;;;;4.75;4.35;;;1.00;99.90;;;;;;5010551;28;20180;-74
2023/01/28 20:33:11;;;;;;;5.18;4.78;;;1.00;99.90;;;;;;5006149;28;20761;-73
2023/01/28 20:35:36;;;;;;;5.57;5.07;;;1.00;99.90;;;;;;5008778;28;20275;-73
2023/01/28 20:38:03;;;;;;;5.28;4.88;;;1.00;99.90;;;;;;5007769;28;20177;-74
2023/01/28 20:40:29;;;;;;;4.97;4.57;;;1.00;99.90;;;;;;5021494;28;20173;-72
2023/01/28 20:42:55;;;;;;;4.93;4.53;;;1.00;99.90;;;;;;5023417;28;20213;-74